sensor_id;sensor_type;location;lat;lon;timestamp;temperature;humidity
22532;DHT22;11432;46.924;7.114;2023-07-20T00:01:26;20.80;1.00
22532;DHT22;11432;46.924;7.114;2023-07-20T00:03:52;20.80;1.00
22532;DHT22;11432;46.924;7.114;2023-07-20T00:06:24;20.80;1.00
22532;DHT22;11432;46.924;7.114;2023-07-20T00:08:54;20.60;1.00
22532;DHT22;11432;46.924;7.114;2023-07-20T00:11:20;20.50;1.00
22532;DHT22;11432;46.924;7.114;2023-07-20T00:13:46;20.50;1.00
22532;DHT22;11432;46.924;7.114;2023-07-20T00:16:12;20.30;99.90
22532;DHT22;11432;46.924;7.114;2023-07-20T00:18:37;20.20;1.00
22532;DHT22;11432;46.924;7.114;2023-07-20T00:21:03;20.10;1.00
22532;DHT22;11432;46.924;7.114;2023-07-20T00:23:29;20.00;1.00
22532;DHT22;11432;46.924;7.114;2023-07-20T00:25:54;20.00;99.90
22532;DHT22;11432;46.924;7.114;2023-07-20T00:28:20;20.10;53.70
22532;DHT22;11432;46.924;7.114;2023-07-20T00:30:46;20.10;1.00
22532;DHT22;11432;46.924;7.114;2023-07-20T00:33:12;20.10;1.00
22532;DHT22;11432;46.924;7.114;2023-07-20T00:35:39;20.00;1.00
22532;DHT22;11432;46.924;7.114;2023-07-20T00:38:05;20.00;1.00
22532;DHT22;11432;46.924;7.114;2023-07-20T00:40:38;19.90;1.00
22532;DHT22;11432;46.924;7.114;2023-07-20T00:43:03;19.80;1.00
22532;DHT22;11432;46.924;7.114;2023-07-20T00:45:29;19.70;95.90
22532;DHT22;11432;46.924;7.114;2023-07-20T00:47:56;19.70;99.90
22532;DHT22;11432;46.924;7.114;2023-07-20T00:50:24;19.70;99.90
22532;DHT22;11432;46.924;7.114;2023-07-20T00:52:49;19.70;99.90
22532;DHT22;11432;46.924;7.114;2023-07-20T00:55:15;19.80;1.00
22532;DHT22;11432;46.924;7.114;2023-07-20T00:57:41;19.90;1.00
22532;DHT22;11432;46.924;7.114;2023-07-20T01:00:07;20.00;1.00
22532;DHT22;11432;46.924;7.114;2023-07-20T01:02:33;20.00;1.00
22532;DHT22;11432;46.924;7.114;2023-07-20T01:04:59;20.10;1.00
22532;DHT22;11432;46.924;7.114;2023-07-20T01:07:32;20.00;1.00
22532;DHT22;11432;46.924;7.114;2023-07-20T01:10:16;20.10;1.00
22532;DHT22;11432;46.924;7.114;2023-07-20T01:12:47;20.10;1.00
22532;DHT22;11432;46.924;7.114;2023-07-20T01:15:13;20.00;4.70
22532;DHT22;11432;46.924;7.114;2023-07-20T01:17:39;19.90;1.00
22532;DHT22;11432;46.924;7.114;2023-07-20T01:20:08;19.80;1.00
22532;DHT22;11432;46.924;7.114;2023-07-20T01:33:20;19.90;99.90
22532;DHT22;11432;46.924;7.114;2023-07-20T01:35:59;19.80;99.90
22532;DHT22;11432;46.924;7.114;2023-07-20T01:38:26;19.60;99.90
22532;DHT22;11432;46.924;7.114;2023-07-20T01:40:52;19.40;99.90
22532;DHT22;11432;46.924;7.114;2023-07-20T01:43:18;19.40;1.00
22532;DHT22;11432;46.924;7.114;2023-07-20T01:45:44;19.50;1.00
22532;DHT22;11432;46.924;7.114;2023-07-20T01:48:10;19.40;1.00
22532;DHT22;11432;46.924;7.114;2023-07-20T01:50:36;19.30;1.00
22532;DHT22;11432;46.924;7.114;2023-07-20T01:53:02;19.20;99.90
22532;DHT22;11432;46.924;7.114;2023-07-20T01:55:27;19.30;1.00
22532;DHT22;11432;46.924;7.114;2023-07-20T01:57:54;19.40;1.00
22532;DHT22;11432;46.924;7.114;2023-07-20T02:00:20;19.60;92.60
22532;DHT22;11432;46.924;7.114;2023-07-20T02:02:49;19.40;1.00
22532;DHT22;11432;46.924;7.114;2023-07-20T02:05:16;19.30;1.00
22532;DHT22;11432;46.924;7.114;2023-07-20T02:07:42;19.20;45.00
22532;DHT22;11432;46.924;7.114;2023-07-20T02:10:07;19.30;99.90
22532;DHT22;11432;46.924;7.114;2023-07-20T02:12:33;19.50;1.00
22532;DHT22;11432;46.924;7.114;2023-07-20T02:14:59;19.60;11.50
22532;DHT22;11432;46.924;7.114;2023-07-20T02:17:25;19.70;1.00
22532;DHT22;11432;46.924;7.114;2023-07-20T02:19:52;19.50;8.00
22532;DHT22;11432;46.924;7.114;2023-07-20T02:22:18;19.40;1.00
22532;DHT22;11432;46.924;7.114;2023-07-20T02:24:44;19.50;1.00
22532;DHT22;11432;46.924;7.114;2023-07-20T02:27:10;19.40;1.00
22532;DHT22;11432;46.924;7.114;2023-07-20T02:29:35;19.30;11.70
22532;DHT22;11432;46.924;7.114;2023-07-20T02:32:01;19.40;1.00
22532;DHT22;11432;46.924;7.114;2023-07-20T02:34:27;19.60;99.90
22532;DHT22;11432;46.924;7.114;2023-07-20T02:36:53;19.70;1.00
22532;DHT22;11432;46.924;7.114;2023-07-20T02:39:21;19.70;1.00
22532;DHT22;11432;46.924;7.114;2023-07-20T02:41:47;19.60;1.00
22532;DHT22;11432;46.924;7.114;2023-07-20T02:44:14;19.50;1.00
22532;DHT22;11432;46.924;7.114;2023-07-20T02:46:39;19.50;1.00
22532;DHT22;11432;46.924;7.114;2023-07-20T02:49:05;19.30;1.00
22532;DHT22;11432;46.924;7.114;2023-07-20T02:51:30;19.30;99.90
22532;DHT22;11432;46.924;7.114;2023-07-20T02:53:56;19.30;99.90
22532;DHT22;11432;46.924;7.114;2023-07-20T02:56:22;19.40;99.90
22532;DHT22;11432;46.924;7.114;2023-07-20T02:58:48;19.40;99.90
22532;DHT22;11432;46.924;7.114;2023-07-20T03:01:14;19.50;1.00
22532;DHT22;11432;46.924;7.114;2023-07-20T03:03:41;19.50;1.00
22532;DHT22;11432;46.924;7.114;2023-07-20T03:06:15;19.50;1.00
22532;DHT22;11432;46.924;7.114;2023-07-20T03:08:41;19.50;1.00
22532;DHT22;11432;46.924;7.114;2023-07-20T03:11:07;19.60;1.00
22532;DHT22;11432;46.924;7.114;2023-07-20T03:13:33;19.60;1.00
22532;DHT22;11432;46.924;7.114;2023-07-20T03:15:58;19.70;1.00
22532;DHT22;11432;46.924;7.114;2023-07-20T03:18:24;19.70;1.00
22532;DHT22;11432;46.924;7.114;2023-07-20T03:20:49;19.60;1.00
22532;DHT22;11432;46.924;7.114;2023-07-20T03:23:15;19.50;1.00
22532;DHT22;11432;46.924;7.114;2023-07-20T03:25:42;19.50;1.00
22532;DHT22;11432;46.924;7.114;2023-07-20T03:28:07;19.60;99.90
22532;DHT22;11432;46.924;7.114;2023-07-20T03:30:34;19.50;1.00
22532;DHT22;11432;46.924;7.114;2023-07-20T03:33:00;19.60;1.00
22532;DHT22;11432;46.924;7.114;2023-07-20T03:35:25;19.60;8.40
22532;DHT22;11432;46.924;7.114;2023-07-20T03:37:51;19.60;99.90
22532;DHT22;11432;46.924;7.114;2023-07-20T03:40:16;19.70;1.00
22532;DHT22;11432;46.924;7.114;2023-07-20T03:42:42;19.70;1.00
22532;DHT22;11432;46.924;7.114;2023-07-20T03:45:08;19.70;1.00
22532;DHT22;11432;46.924;7.114;2023-07-20T03:47:34;19.80;18.20
22532;DHT22;11432;46.924;7.114;2023-07-20T03:49:59;19.70;1.00
22532;DHT22;11432;46.924;7.114;2023-07-20T03:52:25;19.80;1.00
22532;DHT22;11432;46.924;7.114;2023-07-20T03:54:50;19.70;1.00
22532;DHT22;11432;46.924;7.114;2023-07-20T03:57:19;19.60;1.00
22532;DHT22;11432;46.924;7.114;2023-07-20T03:59:48;19.70;1.00
22532;DHT22;11432;46.924;7.114;2023-07-20T04:02:14;19.70;1.00
22532;DHT22;11432;46.924;7.114;2023-07-20T04:04:40;19.70;1.00
22532;DHT22;11432;46.924;7.114;2023-07-20T04:07:06;19.70;1.00
22532;DHT22;11432;46.924;7.114;2023-07-20T04:09:32;19.70;99.90
22532;DHT22;11432;46.924;7.114;2023-07-20T04:11:58;19.70;99.90
22532;DHT22;11432;46.924;7.114;2023-07-20T04:14:24;19.70;99.90
22532;DHT22;11432;46.924;7.114;2023-07-20T04:16:49;19.50;1.00
22532;DHT22;11432;46.924;7.114;2023-07-20T04:19:16;19.50;1.00
22532;DHT22;11432;46.924;7.114;2023-07-20T04:21:43;19.60;1.00
22532;DHT22;11432;46.924;7.114;2023-07-20T04:24:09;19.70;6.00
22532;DHT22;11432;46.924;7.114;2023-07-20T04:26:34;19.70;99.90
22532;DHT22;11432;46.924;7.114;2023-07-20T04:29:01;19.70;1.00
22532;DHT22;11432;46.924;7.114;2023-07-20T04:31:26;19.70;1.00
22532;DHT22;11432;46.924;7.114;2023-07-20T04:33:52;19.80;99.90
22532;DHT22;11432;46.924;7.114;2023-07-20T04:36:17;19.70;99.90
22532;DHT22;11432;46.924;7.114;2023-07-20T04:38:47;19.70;1.00
22532;DHT22;11432;46.924;7.114;2023-07-20T04:41:13;19.70;95.40
22532;DHT22;11432;46.924;7.114;2023-07-20T04:43:43;19.70;54.90
22532;DHT22;11432;46.924;7.114;2023-07-20T04:46:10;19.70;99.90
22532;DHT22;11432;46.924;7.114;2023-07-20T04:48:35;19.80;99.90
22532;DHT22;11432;46.924;7.114;2023-07-20T04:51:01;19.70;51.70
22532;DHT22;11432;46.924;7.114;2023-07-20T04:53:26;19.70;1.00
22532;DHT22;11432;46.924;7.114;2023-07-20T04:55:52;19.80;1.00
22532;DHT22;11432;46.924;7.114;2023-07-20T04:58:20;19.70;14.00
22532;DHT22;11432;46.924;7.114;2023-07-20T05:00:46;19.80;99.90
22532;DHT22;11432;46.924;7.114;2023-07-20T05:03:12;19.80;1.00
22532;DHT22;11432;46.924;7.114;2023-07-20T05:05:37;19.90;1.00
22532;DHT22;11432;46.924;7.114;2023-07-20T05:08:04;19.90;99.90
22532;DHT22;11432;46.924;7.114;2023-07-20T05:10:29;20.00;99.90
22532;DHT22;11432;46.924;7.114;2023-07-20T05:12:55;20.00;57.70
22532;DHT22;11432;46.924;7.114;2023-07-20T05:15:21;19.90;56.40
22532;DHT22;11432;46.924;7.114;2023-07-20T05:17:46;20.00;1.00
22532;DHT22;11432;46.924;7.114;2023-07-20T05:20:14;20.20;1.00
22532;DHT22;11432;46.924;7.114;2023-07-20T05:22:39;20.30;1.00
22532;DHT22;11432;46.924;7.114;2023-07-20T05:25:08;20.30;99.90
22532;DHT22;11432;46.924;7.114;2023-07-20T05:27:36;20.30;99.90
22532;DHT22;11432;46.924;7.114;2023-07-20T05:30:03;20.50;99.90
22532;DHT22;11432;46.924;7.114;2023-07-20T05:32:29;20.50;99.90
22532;DHT22;11432;46.924;7.114;2023-07-20T05:34:55;20.50;99.90
22532;DHT22;11432;46.924;7.114;2023-07-20T05:37:21;20.50;99.90
22532;DHT22;11432;46.924;7.114;2023-07-20T05:39:47;20.40;99.90
22532;DHT22;11432;46.924;7.114;2023-07-20T05:42:12;20.30;99.90
22532;DHT22;11432;46.924;7.114;2023-07-20T05:44:38;20.20;99.90
22532;DHT22;11432;46.924;7.114;2023-07-20T05:47:04;19.90;1.00
22532;DHT22;11432;46.924;7.114;2023-07-20T05:49:31;19.70;15.20
22532;DHT22;11432;46.924;7.114;2023-07-20T05:51:57;19.80;1.00
22532;DHT22;11432;46.924;7.114;2023-07-20T05:54:24;19.90;1.00
22532;DHT22;11432;46.924;7.114;2023-07-20T05:56:50;19.90;1.00
22532;DHT22;11432;46.924;7.114;2023-07-20T05:59:15;19.80;1.00
22532;DHT22;11432;46.924;7.114;2023-07-20T06:01:42;19.80;1.00
22532;DHT22;11432;46.924;7.114;2023-07-20T06:04:08;19.80;1.00
22532;DHT22;11432;46.924;7.114;2023-07-20T06:06:34;19.90;1.00
22532;DHT22;11432;46.924;7.114;2023-07-20T06:09:00;19.90;1.00
22532;DHT22;11432;46.924;7.114;2023-07-20T06:11:29;20.00;99.90
22532;DHT22;11432;46.924;7.114;2023-07-20T06:13:56;20.00;1.00
22532;DHT22;11432;46.924;7.114;2023-07-20T06:16:22;20.10;1.00
22532;DHT22;11432;46.924;7.114;2023-07-20T06:18:47;20.20;1.00
22532;DHT22;11432;46.924;7.114;2023-07-20T06:21:13;20.40;99.90
22532;DHT22;11432;46.924;7.114;2023-07-20T06:23:39;20.30;1.00
22532;DHT22;11432;46.924;7.114;2023-07-20T06:26:06;20.30;1.00
22532;DHT22;11432;46.924;7.114;2023-07-20T06:28:32;20.50;1.00
22532;DHT22;11432;46.924;7.114;2023-07-20T06:31:01;20.50;1.00
22532;DHT22;11432;46.924;7.114;2023-07-20T06:33:27;20.60;1.00
22532;DHT22;11432;46.924;7.114;2023-07-20T06:35:53;20.70;1.00
22532;DHT22;11432;46.924;7.114;2023-07-20T06:38:19;20.80;1.00
22532;DHT22;11432;46.924;7.114;2023-07-20T06:40:48;21.10;1.00
22532;DHT22;11432;46.924;7.114;2023-07-20T06:43:14;21.10;99.90
22532;DHT22;11432;46.924;7.114;2023-07-20T06:45:40;21.20;99.90
22532;DHT22;11432;46.924;7.114;2023-07-20T06:48:06;21.30;1.00
22532;DHT22;11432;46.924;7.114;2023-07-20T06:50:31;21.10;1.00
22532;DHT22;11432;46.924;7.114;2023-07-20T06:52:57;21.20;1.00
22532;DHT22;11432;46.924;7.114;2023-07-20T06:55:24;21.60;1.00
22532;DHT22;11432;46.924;7.114;2023-07-20T06:57:50;21.80;1.00
22532;DHT22;11432;46.924;7.114;2023-07-20T07:00:16;21.50;1.00
22532;DHT22;11432;46.924;7.114;2023-07-20T07:02:41;21.50;1.00
22532;DHT22;11432;46.924;7.114;2023-07-20T07:05:07;21.60;1.00
22532;DHT22;11432;46.924;7.114;2023-07-20T07:07:33;21.50;32.50
22532;DHT22;11432;46.924;7.114;2023-07-20T07:10:00;21.50;1.00
22532;DHT22;11432;46.924;7.114;2023-07-20T07:12:26;21.30;1.00
22532;DHT22;11432;46.924;7.114;2023-07-20T07:14:52;21.30;1.00
22532;DHT22;11432;46.924;7.114;2023-07-20T07:17:18;21.40;1.00
22532;DHT22;11432;46.924;7.114;2023-07-20T07:19:43;21.60;1.00
22532;DHT22;11432;46.924;7.114;2023-07-20T07:22:10;21.60;1.00
22532;DHT22;11432;46.924;7.114;2023-07-20T07:24:35;21.30;1.00
22532;DHT22;11432;46.924;7.114;2023-07-20T07:27:01;21.20;1.00
22532;DHT22;11432;46.924;7.114;2023-07-20T07:29:27;21.10;1.00
22532;DHT22;11432;46.924;7.114;2023-07-20T07:31:53;21.10;1.00
22532;DHT22;11432;46.924;7.114;2023-07-20T07:34:19;21.10;1.00
22532;DHT22;11432;46.924;7.114;2023-07-20T07:36:44;21.20;1.00
22532;DHT22;11432;46.924;7.114;2023-07-20T07:39:10;21.20;1.00
22532;DHT22;11432;46.924;7.114;2023-07-20T07:41:36;21.40;1.00
22532;DHT22;11432;46.924;7.114;2023-07-20T07:44:02;21.50;1.00
22532;DHT22;11432;46.924;7.114;2023-07-20T07:46:28;21.60;1.00
22532;DHT22;11432;46.924;7.114;2023-07-20T07:48:53;21.70;1.00
22532;DHT22;11432;46.924;7.114;2023-07-20T07:51:19;21.70;1.00
22532;DHT22;11432;46.924;7.114;2023-07-20T07:53:48;21.80;1.00
22532;DHT22;11432;46.924;7.114;2023-07-20T07:56:14;21.90;1.00
22532;DHT22;11432;46.924;7.114;2023-07-20T07:58:40;21.90;82.70
22532;DHT22;11432;46.924;7.114;2023-07-20T08:01:06;22.00;1.00
22532;DHT22;11432;46.924;7.114;2023-07-20T08:03:31;22.10;17.10
22532;DHT22;11432;46.924;7.114;2023-07-20T08:05:57;22.00;1.00
22532;DHT22;11432;46.924;7.114;2023-07-20T08:08:24;22.10;99.90
22532;DHT22;11432;46.924;7.114;2023-07-20T08:10:52;22.30;1.00
22532;DHT22;11432;46.924;7.114;2023-07-20T08:13:18;22.20;1.00
22532;DHT22;11432;46.924;7.114;2023-07-20T08:15:48;22.30;1.00
22532;DHT22;11432;46.924;7.114;2023-07-20T08:18:14;22.50;1.00
22532;DHT22;11432;46.924;7.114;2023-07-20T08:20:39;22.60;99.90
22532;DHT22;11432;46.924;7.114;2023-07-20T08:23:05;22.90;35.80
22532;DHT22;11432;46.924;7.114;2023-07-20T08:25:30;23.10;1.00
22532;DHT22;11432;46.924;7.114;2023-07-20T08:27:56;23.20;99.90
22532;DHT22;11432;46.924;7.114;2023-07-20T08:30:22;22.90;1.00
22532;DHT22;11432;46.924;7.114;2023-07-20T08:32:49;22.70;99.90
22532;DHT22;11432;46.924;7.114;2023-07-20T08:35:14;22.70;1.00
22532;DHT22;11432;46.924;7.114;2023-07-20T08:37:41;22.60;99.90
22532;DHT22;11432;46.924;7.114;2023-07-20T08:40:07;22.70;1.00
22532;DHT22;11432;46.924;7.114;2023-07-20T08:42:34;22.70;1.00
22532;DHT22;11432;46.924;7.114;2023-07-20T08:45:00;22.80;1.00
22532;DHT22;11432;46.924;7.114;2023-07-20T08:47:26;22.70;1.00
22532;DHT22;11432;46.924;7.114;2023-07-20T08:49:52;22.90;1.00
22532;DHT22;11432;46.924;7.114;2023-07-20T08:52:19;23.00;99.90
22532;DHT22;11432;46.924;7.114;2023-07-20T08:54:45;23.20;1.00
22532;DHT22;11432;46.924;7.114;2023-07-20T08:57:13;23.20;99.90
22532;DHT22;11432;46.924;7.114;2023-07-20T08:59:43;23.30;99.90
22532;DHT22;11432;46.924;7.114;2023-07-20T09:02:11;23.30;99.90
22532;DHT22;11432;46.924;7.114;2023-07-20T09:04:40;23.40;1.00
22532;DHT22;11432;46.924;7.114;2023-07-20T09:07:06;23.50;99.90
22532;DHT22;11432;46.924;7.114;2023-07-20T09:09:32;23.50;1.00
22532;DHT22;11432;46.924;7.114;2023-07-20T09:11:57;23.50;99.90
22532;DHT22;11432;46.924;7.114;2023-07-20T09:14:23;23.40;9.00
22532;DHT22;11432;46.924;7.114;2023-07-20T09:19:16;23.70;1.00
22532;DHT22;11432;46.924;7.114;2023-07-20T09:21:50;23.70;1.00
22532;DHT22;11432;46.924;7.114;2023-07-20T09:24:18;23.90;1.00
22532;DHT22;11432;46.924;7.114;2023-07-20T09:26:46;24.20;1.00
22532;DHT22;11432;46.924;7.114;2023-07-20T09:29:19;24.50;1.00
22532;DHT22;11432;46.924;7.114;2023-07-20T09:32:04;24.10;99.90
22532;DHT22;11432;46.924;7.114;2023-07-20T09:34:30;24.20;1.00
22532;DHT22;11432;46.924;7.114;2023-07-20T09:36:58;24.20;1.00
22532;DHT22;11432;46.924;7.114;2023-07-20T09:39:23;24.30;1.00
22532;DHT22;11432;46.924;7.114;2023-07-20T09:41:50;24.50;1.00
22532;DHT22;11432;46.924;7.114;2023-07-20T09:44:16;24.70;1.00
22532;DHT22;11432;46.924;7.114;2023-07-20T09:46:51;24.90;1.00
22532;DHT22;11432;46.924;7.114;2023-07-20T09:49:18;24.90;1.00
22532;DHT22;11432;46.924;7.114;2023-07-20T09:51:45;24.80;1.00
22532;DHT22;11432;46.924;7.114;2023-07-20T09:54:11;24.80;99.90
22532;DHT22;11432;46.924;7.114;2023-07-20T09:56:38;24.90;1.00
22532;DHT22;11432;46.924;7.114;2023-07-20T09:59:05;24.90;1.00
22532;DHT22;11432;46.924;7.114;2023-07-20T10:01:32;24.90;1.00
22532;DHT22;11432;46.924;7.114;2023-07-20T10:03:59;25.20;1.00
22532;DHT22;11432;46.924;7.114;2023-07-20T10:06:29;25.20;99.90
22532;DHT22;11432;46.924;7.114;2023-07-20T10:08:57;25.10;1.00
22532;DHT22;11432;46.924;7.114;2023-07-20T10:11:29;25.30;99.90
22532;DHT22;11432;46.924;7.114;2023-07-20T10:13:57;25.40;1.00
22532;DHT22;11432;46.924;7.114;2023-07-20T10:16:34;25.80;1.00
22532;DHT22;11432;46.924;7.114;2023-07-20T10:19:11;26.20;99.90
22532;DHT22;11432;46.924;7.114;2023-07-20T10:21:41;25.70;1.00
22532;DHT22;11432;46.924;7.114;2023-07-20T10:24:08;25.50;1.00
22532;DHT22;11432;46.924;7.114;2023-07-20T10:26:34;26.00;1.00
22532;DHT22;11432;46.924;7.114;2023-07-20T10:29:01;25.90;1.00
22532;DHT22;11432;46.924;7.114;2023-07-20T10:31:27;25.80;99.90
22532;DHT22;11432;46.924;7.114;2023-07-20T10:33:56;25.80;1.00
22532;DHT22;11432;46.924;7.114;2023-07-20T10:36:26;26.00;1.00
22532;DHT22;11432;46.924;7.114;2023-07-20T10:38:58;26.00;62.30
22532;DHT22;11432;46.924;7.114;2023-07-20T10:41:34;26.20;1.00
22532;DHT22;11432;46.924;7.114;2023-07-20T10:44:05;26.40;1.00
22532;DHT22;11432;46.924;7.114;2023-07-20T10:46:42;26.30;1.00
22532;DHT22;11432;46.924;7.114;2023-07-20T10:49:10;26.20;1.00
22532;DHT22;11432;46.924;7.114;2023-07-20T10:51:46;26.40;1.00
22532;DHT22;11432;46.924;7.114;2023-07-20T10:56:42;26.70;99.90
22532;DHT22;11432;46.924;7.114;2023-07-20T10:59:36;26.60;99.90
22532;DHT22;11432;46.924;7.114;2023-07-20T11:02:08;26.40;99.90
22532;DHT22;11432;46.924;7.114;2023-07-20T11:04:40;26.60;1.00
22532;DHT22;11432;46.924;7.114;2023-07-20T11:07:06;26.60;99.90
22532;DHT22;11432;46.924;7.114;2023-07-20T11:09:38;26.60;99.90
22532;DHT22;11432;46.924;7.114;2023-07-20T11:12:14;26.80;1.00
22532;DHT22;11432;46.924;7.114;2023-07-20T11:14:58;26.20;1.00
22532;DHT22;11432;46.924;7.114;2023-07-20T11:17:31;26.30;1.00
22532;DHT22;11432;46.924;7.114;2023-07-20T11:19:59;26.80;1.00
22532;DHT22;11432;46.924;7.114;2023-07-20T11:22:27;27.00;1.00
22532;DHT22;11432;46.924;7.114;2023-07-20T11:24:56;26.90;93.40
22532;DHT22;11432;46.924;7.114;2023-07-20T11:27:21;27.20;99.90
22532;DHT22;11432;46.924;7.114;2023-07-20T11:29:50;26.70;99.90
22532;DHT22;11432;46.924;7.114;2023-07-20T11:32:22;26.80;99.90
22532;DHT22;11432;46.924;7.114;2023-07-20T11:34:48;27.10;1.00
22532;DHT22;11432;46.924;7.114;2023-07-20T11:37:14;27.20;99.90
22532;DHT22;11432;46.924;7.114;2023-07-20T11:39:40;27.10;99.90
22532;DHT22;11432;46.924;7.114;2023-07-20T11:42:06;27.10;1.00
22532;DHT22;11432;46.924;7.114;2023-07-20T11:44:32;27.20;1.00
22532;DHT22;11432;46.924;7.114;2023-07-20T11:47:08;27.20;99.90
22532;DHT22;11432;46.924;7.114;2023-07-20T11:49:38;27.30;99.90
22532;DHT22;11432;46.924;7.114;2023-07-20T11:52:10;27.30;1.00
22532;DHT22;11432;46.924;7.114;2023-07-20T11:54:39;27.40;1.00
22532;DHT22;11432;46.924;7.114;2023-07-20T11:57:05;27.20;1.00
22532;DHT22;11432;46.924;7.114;2023-07-20T11:59:31;27.10;93.70
22532;DHT22;11432;46.924;7.114;2023-07-20T12:02:01;27.10;1.00
22532;DHT22;11432;46.924;7.114;2023-07-20T12:04:28;27.50;1.00
22532;DHT22;11432;46.924;7.114;2023-07-20T12:06:54;27.90;99.90
22532;DHT22;11432;46.924;7.114;2023-07-20T12:09:23;27.90;1.00
22532;DHT22;11432;46.924;7.114;2023-07-20T12:11:49;27.90;1.00
22532;DHT22;11432;46.924;7.114;2023-07-20T12:14:16;28.00;99.90
22532;DHT22;11432;46.924;7.114;2023-07-20T12:16:42;28.40;6.40
22532;DHT22;11432;46.924;7.114;2023-07-20T12:19:11;28.30;1.00
22532;DHT22;11432;46.924;7.114;2023-07-20T12:21:39;28.40;99.90
22532;DHT22;11432;46.924;7.114;2023-07-20T12:24:09;28.00;99.90
22532;DHT22;11432;46.924;7.114;2023-07-20T12:26:35;27.90;99.90
22532;DHT22;11432;46.924;7.114;2023-07-20T12:29:01;28.10;99.90
22532;DHT22;11432;46.924;7.114;2023-07-20T12:31:29;28.40;80.00
22532;DHT22;11432;46.924;7.114;2023-07-20T12:33:57;28.70;99.90
22532;DHT22;11432;46.924;7.114;2023-07-20T12:36:24;28.90;99.90
22532;DHT22;11432;46.924;7.114;2023-07-20T12:38:50;28.70;99.90
22532;DHT22;11432;46.924;7.114;2023-07-20T12:41:16;28.70;1.00
22532;DHT22;11432;46.924;7.114;2023-07-20T12:43:42;28.80;99.90
22532;DHT22;11432;46.924;7.114;2023-07-20T12:46:08;29.20;1.00
22532;DHT22;11432;46.924;7.114;2023-07-20T12:48:35;29.60;99.90
22532;DHT22;11432;46.924;7.114;2023-07-20T12:51:02;29.80;99.90
22532;DHT22;11432;46.924;7.114;2023-07-20T12:53:29;30.20;1.00
22532;DHT22;11432;46.924;7.114;2023-07-20T12:55:54;30.50;1.00
22532;DHT22;11432;46.924;7.114;2023-07-20T12:58:20;31.00;99.90
22532;DHT22;11432;46.924;7.114;2023-07-20T13:00:45;31.90;1.00
22532;DHT22;11432;46.924;7.114;2023-07-20T13:03:11;31.90;1.00
22532;DHT22;11432;46.924;7.114;2023-07-20T13:05:37;32.10;1.00
22532;DHT22;11432;46.924;7.114;2023-07-20T13:08:02;32.20;1.00
22532;DHT22;11432;46.924;7.114;2023-07-20T13:10:28;32.70;1.00
22532;DHT22;11432;46.924;7.114;2023-07-20T13:12:54;33.30;99.90
22532;DHT22;11432;46.924;7.114;2023-07-20T13:15:20;33.50;1.00
22532;DHT22;11432;46.924;7.114;2023-07-20T13:17:46;32.50;15.30
22532;DHT22;11432;46.924;7.114;2023-07-20T13:20:12;32.90;1.00
22532;DHT22;11432;46.924;7.114;2023-07-20T13:22:38;32.40;60.50
22532;DHT22;11432;46.924;7.114;2023-07-20T13:25:04;31.60;99.90
22532;DHT22;11432;46.924;7.114;2023-07-20T13:27:30;31.40;1.00
22532;DHT22;11432;46.924;7.114;2023-07-20T13:29:57;31.80;1.00
22532;DHT22;11432;46.924;7.114;2023-07-20T13:32:23;32.40;1.00
22532;DHT22;11432;46.924;7.114;2023-07-20T13:34:48;33.20;1.00
22532;DHT22;11432;46.924;7.114;2023-07-20T13:37:14;32.60;1.00
22532;DHT22;11432;46.924;7.114;2023-07-20T13:39:41;32.50;1.00
22532;DHT22;11432;46.924;7.114;2023-07-20T13:42:07;32.10;1.00
22532;DHT22;11432;46.924;7.114;2023-07-20T13:44:35;32.30;99.90
22532;DHT22;11432;46.924;7.114;2023-07-20T13:47:01;32.40;1.00
22532;DHT22;11432;46.924;7.114;2023-07-20T13:49:27;32.30;1.00
22532;DHT22;11432;46.924;7.114;2023-07-20T13:51:53;32.40;99.90
22532;DHT22;11432;46.924;7.114;2023-07-20T13:54:19;32.30;99.90
22532;DHT22;11432;46.924;7.114;2023-07-20T13:56:44;32.40;99.90
22532;DHT22;11432;46.924;7.114;2023-07-20T13:59:10;32.50;1.00
22532;DHT22;11432;46.924;7.114;2023-07-20T14:01:35;32.70;1.00
22532;DHT22;11432;46.924;7.114;2023-07-20T14:04:02;32.80;1.00
22532;DHT22;11432;46.924;7.114;2023-07-20T14:06:29;33.00;1.00
22532;DHT22;11432;46.924;7.114;2023-07-20T14:08:55;33.50;1.00
22532;DHT22;11432;46.924;7.114;2023-07-20T14:11:21;32.90;1.00
22532;DHT22;11432;46.924;7.114;2023-07-20T14:13:46;32.40;1.00
22532;DHT22;11432;46.924;7.114;2023-07-20T14:16:12;32.40;99.90
22532;DHT22;11432;46.924;7.114;2023-07-20T14:18:38;32.40;99.90
22532;DHT22;11432;46.924;7.114;2023-07-20T14:21:03;32.60;99.90
22532;DHT22;11432;46.924;7.114;2023-07-20T14:23:30;33.20;1.00
22532;DHT22;11432;46.924;7.114;2023-07-20T14:25:56;33.80;1.00
22532;DHT22;11432;46.924;7.114;2023-07-20T14:28:21;33.30;99.90
22532;DHT22;11432;46.924;7.114;2023-07-20T14:30:47;33.30;99.90
22532;DHT22;11432;46.924;7.114;2023-07-20T14:33:13;33.00;1.00
22532;DHT22;11432;46.924;7.114;2023-07-20T14:35:38;32.60;99.90
22532;DHT22;11432;46.924;7.114;2023-07-20T14:38:04;32.70;1.00
22532;DHT22;11432;46.924;7.114;2023-07-20T14:40:29;32.90;99.90
22532;DHT22;11432;46.924;7.114;2023-07-20T14:42:56;32.80;99.90
22532;DHT22;11432;46.924;7.114;2023-07-20T14:45:22;33.00;1.00
22532;DHT22;11432;46.924;7.114;2023-07-20T14:47:47;32.90;1.00
22532;DHT22;11432;46.924;7.114;2023-07-20T14:50:21;33.30;99.90
22532;DHT22;11432;46.924;7.114;2023-07-20T14:52:47;33.30;99.90
22532;DHT22;11432;46.924;7.114;2023-07-20T14:55:13;33.40;1.00
22532;DHT22;11432;46.924;7.114;2023-07-20T14:57:39;33.10;99.90
22532;DHT22;11432;46.924;7.114;2023-07-20T15:00:05;33.00;1.00
22532;DHT22;11432;46.924;7.114;2023-07-20T15:02:38;32.80;1.00
22532;DHT22;11432;46.924;7.114;2023-07-20T15:05:08;33.10;1.00
22532;DHT22;11432;46.924;7.114;2023-07-20T15:07:33;33.20;99.90
22532;DHT22;11432;46.924;7.114;2023-07-20T15:10:00;32.80;1.00
22532;DHT22;11432;46.924;7.114;2023-07-20T15:12:25;32.60;99.40
22532;DHT22;11432;46.924;7.114;2023-07-20T15:17:34;32.50;1.00
22532;DHT22;11432;46.924;7.114;2023-07-20T15:20:01;32.80;1.00
22532;DHT22;11432;46.924;7.114;2023-07-20T15:22:30;32.70;1.00
22532;DHT22;11432;46.924;7.114;2023-07-20T15:24:56;32.30;1.00
22532;DHT22;11432;46.924;7.114;2023-07-20T15:27:21;31.90;1.00
22532;DHT22;11432;46.924;7.114;2023-07-20T15:29:48;32.00;99.90
22532;DHT22;11432;46.924;7.114;2023-07-20T15:32:14;32.60;1.00
22532;DHT22;11432;46.924;7.114;2023-07-20T15:34:42;32.40;1.00
22532;DHT22;11432;46.924;7.114;2023-07-20T15:37:09;32.60;1.00
22532;DHT22;11432;46.924;7.114;2023-07-20T15:39:35;33.50;99.90
22532;DHT22;11432;46.924;7.114;2023-07-20T15:42:01;33.20;1.00
22532;DHT22;11432;46.924;7.114;2023-07-20T15:44:27;33.40;1.00
22532;DHT22;11432;46.924;7.114;2023-07-20T15:46:52;33.40;1.00
22532;DHT22;11432;46.924;7.114;2023-07-20T15:49:18;32.60;1.00
22532;DHT22;11432;46.924;7.114;2023-07-20T15:51:44;32.50;1.00
22532;DHT22;11432;46.924;7.114;2023-07-20T15:54:12;32.30;1.00
22532;DHT22;11432;46.924;7.114;2023-07-20T15:56:39;32.60;99.90